Terminal Aerodrome Forecast
Issued by NWS

Current Version | Previous Version | Text Only | Print | Product List | Glossary On
Versions: 1 2 3 4 5 6 7 8 9 10 11 12 13 14 15 16 17 18
000
FTUS46 KLOX 270901 AAA
TAFPRB
TAF AMD
KPRB 270901Z 2709/2806 32015G25KT P6SM OVC008
     FM271100 32010KT P6SM OVC008
     FM272000 32018G28KT P6SM SCT200
     FM280100 32018KT P6SM SKC=

USA.gov is the U.S. government's official web portal to all federal, state and local government web resources and services.